createdAt,value
2022-08-17T00:01:52.107Z,23.60
2022-08-17T00:04:22.495Z,23.50
2022-08-17T00:06:53.550Z,23.40
2022-08-17T00:09:24.126Z,23.40
2022-08-17T00:12:41.807Z,23.30
2022-08-17T00:14:42.839Z,23.30
2022-08-17T00:17:12.265Z,23.30
2022-08-17T00:19:41.974Z,23.30
2022-08-17T00:22:34.061Z,23.20
2022-08-17T00:25:02.435Z,23.20
2022-08-17T00:27:32.173Z,23.20
2022-08-17T00:30:01.768Z,23.10
2022-08-17T00:33:14.210Z,23.10
2022-08-17T00:35:28.677Z,23.10
2022-08-17T00:37:58.127Z,23.00
2022-08-17T00:40:40.592Z,23.00
2022-08-17T00:43:19.966Z,23.00
2022-08-17T00:45:50.410Z,23.00
2022-08-17T00:48:26.208Z,22.90
2022-08-17T00:51:08.870Z,22.90
2022-08-17T00:53:43.429Z,23.00
2022-08-17T00:56:18.706Z,22.90
2022-08-17T00:58:48.928Z,23.00
2022-08-17T01:01:21.973Z,23.00
2022-08-17T01:03:53.328Z,22.90
2022-08-17T01:06:28.608Z,22.90
2022-08-17T01:08:59.688Z,22.80
2022-08-17T01:11:32.646Z,22.80
2022-08-17T01:14:01.780Z,22.70
2022-08-17T01:16:33.209Z,22.70
2022-08-17T01:19:05.217Z,22.80
2022-08-17T01:21:47.475Z,22.70
2022-08-17T01:24:19.068Z,22.70
2022-08-17T01:26:49.678Z,22.70
2022-08-17T01:29:20.296Z,22.70
2022-08-17T01:31:54.016Z,22.60
2022-08-17T01:34:25.197Z,22.60
2022-08-17T01:37:06.798Z,22.60
2022-08-17T01:39:42.121Z,22.60
2022-08-17T01:42:17.868Z,22.60
2022-08-17T01:44:47.339Z,22.60
2022-08-17T01:47:16.817Z,22.60
2022-08-17T01:49:46.926Z,22.60
2022-08-17T01:52:17.323Z,22.60
2022-08-17T01:54:50.487Z,22.50
2022-08-17T01:57:19.897Z,22.50
2022-08-17T01:59:49.083Z,22.40
2022-08-17T02:02:30.833Z,22.40
2022-08-17T02:05:01.155Z,22.50
2022-08-17T02:07:30.556Z,22.40
2022-08-17T02:10:01.506Z,22.50
2022-08-17T02:12:38.324Z,22.40
2022-08-17T02:15:17.277Z,22.50
2022-08-17T02:17:46.529Z,22.40
2022-08-17T02:20:16.646Z,22.40
2022-08-17T02:23:09.098Z,22.20
2022-08-17T02:25:41.537Z,22.20
2022-08-17T02:28:11.516Z,22.10
2022-08-17T02:31:01.487Z,22.20
2022-08-17T02:33:41.555Z,22.20
2022-08-17T02:36:14.287Z,22.20
2022-08-17T02:38:44.217Z,22.20
2022-08-17T02:41:15.019Z,22.20
2022-08-17T02:43:44.467Z,22.20
2022-08-17T02:46:14.208Z,22.10
2022-08-17T02:48:43.567Z,22.10
2022-08-17T02:51:13.106Z,22.10
2022-08-17T02:53:42.586Z,22.10
2022-08-17T02:56:11.908Z,22.10
2022-08-17T02:58:42.715Z,22.10
2022-08-17T03:01:12.924Z,22.10
2022-08-17T03:03:42.596Z,22.10
2022-08-17T03:06:12.367Z,22.10
2022-08-17T03:08:41.599Z,22.10
2022-08-17T03:11:10.796Z,22.00
2022-08-17T03:13:41.758Z,22.00
2022-08-17T03:16:11.148Z,22.00
2022-08-17T03:18:40.357Z,22.00
2022-08-17T03:21:09.945Z,22.00
2022-08-17T03:23:41.499Z,22.00
2022-08-17T03:26:12.362Z,21.80
2022-08-17T03:28:46.451Z,21.80
2022-08-17T03:31:15.736Z,21.80
2022-08-17T03:33:44.898Z,21.80
2022-08-17T03:36:14.198Z,21.80
2022-08-17T03:38:43.330Z,21.80
2022-08-17T03:41:14.369Z,21.80
2022-08-17T03:43:43.558Z,21.80
2022-08-17T03:46:35.043Z,21.70
2022-08-17T03:49:24.831Z,21.70
2022-08-17T03:52:12.009Z,21.70
2022-08-17T03:54:58.767Z,21.70
2022-08-17T03:57:29.403Z,21.80
2022-08-17T04:00:00.031Z,21.80
2022-08-17T04:02:32.548Z,21.70
2022-08-17T04:05:02.264Z,21.70
2022-08-17T04:07:32.877Z,21.70
2022-08-17T04:10:02.618Z,21.70
2022-08-17T04:12:45.812Z,21.80
2022-08-17T04:15:15.837Z,21.80
2022-08-17T04:17:46.669Z,21.80
2022-08-17T04:20:17.886Z,22.00
2022-08-17T04:22:58.557Z,22.00
2022-08-17T04:25:28.734Z,22.10
2022-08-17T04:27:58.242Z,22.20
2022-08-17T04:30:29.097Z,22.50
2022-08-17T04:33:19.227Z,22.70
2022-08-17T04:35:51.938Z,23.00
2022-08-17T04:38:23.039Z,23.20
2022-08-17T04:41:10.575Z,23.50
2022-08-17T04:43:41.858Z,23.80
2022-08-17T04:46:14.836Z,24.10
2022-08-17T04:48:48.069Z,24.30
2022-08-17T04:51:19.880Z,24.20
2022-08-17T04:53:54.395Z,24.10
2022-08-17T04:56:26.149Z,24.40
2022-08-17T04:58:58.261Z,24.50
2022-08-17T05:01:30.035Z,24.70
2022-08-17T05:04:20.779Z,25.10
2022-08-17T05:06:54.877Z,25.10
2022-08-17T05:09:24.144Z,24.80
2022-08-17T05:11:55.174Z,24.70
2022-08-17T05:14:33.336Z,24.60
2022-08-17T05:17:07.063Z,24.50
2022-08-17T05:19:41.459Z,24.70
2022-08-17T05:22:10.800Z,25.00
2022-08-17T05:24:43.527Z,25.40
2022-08-17T05:27:23.478Z,25.50
2022-08-17T05:29:52.880Z,25.60
2022-08-17T05:32:38.120Z,25.70
2022-08-17T05:35:11.385Z,25.90
2022-08-17T05:37:40.817Z,26.10
2022-08-17T05:40:11.205Z,26.40
2022-08-17T05:42:40.598Z,26.70
2022-08-17T05:45:11.703Z,26.60
2022-08-17T05:47:41.825Z,26.70
2022-08-17T05:50:26.981Z,26.80
2022-08-17T05:53:04.974Z,27.20
2022-08-17T05:55:46.620Z,27.80
2022-08-17T05:58:26.609Z,28.20
2022-08-17T06:01:05.402Z,28.90
2022-08-17T06:03:50.770Z,29.60
2022-08-17T06:06:40.121Z,30.10
2022-08-17T06:09:33.026Z,30.40
2022-08-17T06:12:19.865Z,30.50
2022-08-17T06:15:05.123Z,30.50
2022-08-17T06:17:35.868Z,30.30
2022-08-17T06:20:10.909Z,30.00
2022-08-17T06:22:47.111Z,29.80
2022-08-17T06:25:20.410Z,29.90
2022-08-17T06:27:54.182Z,30.10
2022-08-17T06:30:26.230Z,30.80
2022-08-17T06:32:59.768Z,31.30
2022-08-17T06:35:39.289Z,31.50
2022-08-17T06:38:37.681Z,31.60
2022-08-17T06:41:19.288Z,31.80
2022-08-17T06:44:00.217Z,31.40
2022-08-17T06:46:37.383Z,31.90
2022-08-17T06:49:22.178Z,32.30
2022-08-17T06:51:55.260Z,32.20
2022-08-17T06:54:35.311Z,32.20
2022-08-17T06:57:14.948Z,32.40
2022-08-17T06:59:55.227Z,32.30
2022-08-17T07:03:02.681Z,32.30
2022-08-17T07:05:36.868Z,32.70
2022-08-17T07:08:17.388Z,33.40
2022-08-17T07:10:51.404Z,33.60
2022-08-17T07:13:32.919Z,34.00
2022-08-17T07:16:12.811Z,33.80
2022-08-17T07:18:44.219Z,33.30
2022-08-17T07:21:26.737Z,32.90
2022-08-17T07:24:08.909Z,32.60
2022-08-17T07:26:39.847Z,32.00
2022-08-17T07:29:12.348Z,31.90
2022-08-17T07:31:42.214Z,31.90
2022-08-17T07:34:15.009Z,32.30
2022-08-17T07:36:44.972Z,32.50
2022-08-17T07:39:20.125Z,32.50
2022-08-17T07:41:57.241Z,33.10
2022-08-17T07:44:28.845Z,33.50
2022-08-17T07:47:16.650Z,33.90
2022-08-17T07:49:47.647Z,34.50
2022-08-17T07:52:50.821Z,35.00
2022-08-17T07:55:29.628Z,34.40
2022-08-17T07:58:02.236Z,33.80
2022-08-17T08:00:33.990Z,33.50
2022-08-17T08:03:14.047Z,33.10
2022-08-17T08:05:52.509Z,33.20
2022-08-17T08:08:29.531Z,33.30
2022-08-17T08:11:09.927Z,33.80
2022-08-17T08:13:44.035Z,34.10
2022-08-17T08:16:25.952Z,34.10
2022-08-17T08:18:58.465Z,33.70
2022-08-17T08:21:36.285Z,33.20
2022-08-17T08:24:22.160Z,33.30
2022-08-17T08:27:00.254Z,33.20
2022-08-17T08:29:38.183Z,32.70
2022-08-17T08:32:16.699Z,32.50
2022-08-17T08:35:01.453Z,32.30
2022-08-17T08:37:43.699Z,32.10
2022-08-17T08:40:33.775Z,31.70
2022-08-17T08:43:10.863Z,31.10
2022-08-17T08:45:50.781Z,31.00
2022-08-17T08:48:57.061Z,30.80
2022-08-17T08:51:41.604Z,31.20
2022-08-17T08:54:26.863Z,31.80
2022-08-17T08:57:34.089Z,31.60
2022-08-17T09:00:15.731Z,31.80
2022-08-17T09:03:12.451Z,31.60
2022-08-17T09:05:59.059Z,31.70
2022-08-17T09:08:39.639Z,31.60
2022-08-17T09:11:26.831Z,31.40
2022-08-17T09:14:21.033Z,31.50
2022-08-17T09:17:03.252Z,31.80
2022-08-17T09:19:53.280Z,32.30
2022-08-17T09:22:35.413Z,32.30
2022-08-17T09:25:11.221Z,32.30
2022-08-17T09:27:52.974Z,32.20
2022-08-17T09:30:25.494Z,32.00
2022-08-17T09:33:01.129Z,32.10
2022-08-17T09:35:40.520Z,32.30
2022-08-17T09:38:32.724Z,32.00
2022-08-17T09:41:14.252Z,32.00
2022-08-17T09:43:50.972Z,32.10
2022-08-17T09:46:25.814Z,32.30
2022-08-17T09:49:03.655Z,32.60
2022-08-17T09:51:40.656Z,32.90
2022-08-17T09:54:40.189Z,33.20
2022-08-17T09:57:30.770Z,32.90
2022-08-17T10:00:13.761Z,32.40
2022-08-17T10:02:57.187Z,31.60
2022-08-17T10:05:37.921Z,31.00
2022-08-17T10:08:21.821Z,30.80
2022-08-17T10:11:07.456Z,30.60
2022-08-17T10:13:52.661Z,30.60
2022-08-17T10:16:31.892Z,30.70
2022-08-17T10:19:21.199Z,31.00
2022-08-17T10:22:12.847Z,31.70
2022-08-17T10:25:22.615Z,32.20
2022-08-17T10:27:58.393Z,32.40
2022-08-17T10:30:30.996Z,31.90
2022-08-17T10:33:02.667Z,31.80
2022-08-17T10:35:43.053Z,31.60
2022-08-17T10:38:42.925Z,31.40
2022-08-17T10:41:30.853Z,31.50
2022-08-17T10:44:40.272Z,31.60
2022-08-17T10:47:08.758Z,31.80
2022-08-17T10:49:39.625Z,31.40
2022-08-17T10:52:44.075Z,31.30
2022-08-17T10:55:18.728Z,31.00
2022-08-17T10:57:51.859Z,31.10
2022-08-17T11:01:04.206Z,31.40
2022-08-17T11:03:34.415Z,31.70
2022-08-17T11:06:18.255Z,31.40
2022-08-17T11:09:20.152Z,30.80
2022-08-17T11:12:16.698Z,30.50
2022-08-17T11:15:10.214Z,30.30
2022-08-17T11:17:54.605Z,30.30
2022-08-17T11:20:51.013Z,30.70
2022-08-17T11:23:48.305Z,31.20
2022-08-17T11:26:26.428Z,31.70
2022-08-17T11:29:00.527Z,31.30
2022-08-17T11:31:38.561Z,31.30
2022-08-17T11:34:19.366Z,31.40
2022-08-17T11:37:19.306Z,31.80
2022-08-17T11:40:25.589Z,31.90
2022-08-17T11:43:46.125Z,32.10
2022-08-17T11:46:24.589Z,32.40
2022-08-17T11:49:27.106Z,32.10
2022-08-17T11:52:15.649Z,31.90
2022-08-17T11:54:47.089Z,32.00
2022-08-17T11:58:01.329Z,32.40
2022-08-17T12:00:59.443Z,32.70
2022-08-17T12:03:54.278Z,32.70
2022-08-17T12:06:46.769Z,32.50
2022-08-17T12:09:21.060Z,32.60
2022-08-17T12:12:12.876Z,32.30
2022-08-17T12:15:09.705Z,32.40
2022-08-17T12:17:52.230Z,32.60
2022-08-17T12:20:29.889Z,32.60
2022-08-17T12:23:09.405Z,31.90
2022-08-17T12:25:44.178Z,31.70
2022-08-17T12:28:23.871Z,31.60
2022-08-17T12:30:54.569Z,31.60
2022-08-17T12:33:29.006Z,31.40
2022-08-17T12:36:03.251Z,31.40
2022-08-17T12:38:36.402Z,31.20
2022-08-17T12:41:23.065Z,31.20
2022-08-17T12:44:02.546Z,31.30
2022-08-17T12:46:36.231Z,31.30
2022-08-17T12:49:34.627Z,31.30
2022-08-17T12:52:15.371Z,31.30
2022-08-17T12:54:53.526Z,31.30
2022-08-17T12:57:27.581Z,31.40
2022-08-17T13:00:02.214Z,31.60
2022-08-17T13:02:41.035Z,31.70
2022-08-17T13:05:24.155Z,31.80
2022-08-17T13:07:56.523Z,31.40
2022-08-17T13:10:33.093Z,31.50
2022-08-17T13:13:06.243Z,31.40
2022-08-17T13:15:46.453Z,31.50
2022-08-17T13:18:39.290Z,31.60
2022-08-17T13:21:18.445Z,31.50
2022-08-17T13:23:57.935Z,31.50
2022-08-17T13:26:36.389Z,31.20
2022-08-17T13:29:10.088Z,31.20
2022-08-17T13:31:52.643Z,31.10
2022-08-17T13:35:08.319Z,30.80
2022-08-17T13:37:37.202Z,30.60
2022-08-17T13:44:04.643Z,30.30
2022-08-17T13:46:40.911Z,30.30
2022-08-17T13:49:13.404Z,30.40
2022-08-17T13:51:45.563Z,30.50
2022-08-17T13:54:26.722Z,30.60
2022-08-17T13:57:01.173Z,30.50
2022-08-17T13:59:54.728Z,30.50
2022-08-17T14:02:27.220Z,30.50
2022-08-17T14:04:59.322Z,30.80
2022-08-17T14:07:33.983Z,31.10
2022-08-17T14:10:13.261Z,31.30
2022-08-17T14:12:44.803Z,31.30
2022-08-17T14:15:20.845Z,30.90
2022-08-17T14:17:50.846Z,30.70
2022-08-17T14:20:24.863Z,30.50
2022-08-17T14:22:57.314Z,30.30
2022-08-17T14:25:29.982Z,30.20
2022-08-17T14:27:59.800Z,30.00
2022-08-17T14:30:31.102Z,29.90
2022-08-17T14:33:02.396Z,29.70
2022-08-17T14:35:31.823Z,29.70
2022-08-17T14:38:02.544Z,29.80
2022-08-17T14:40:33.763Z,30.00
2022-08-17T14:43:04.443Z,30.00
2022-08-17T14:45:35.556Z,30.10
2022-08-17T14:48:07.948Z,30.10
2022-08-17T14:50:37.842Z,30.00
2022-08-17T14:53:08.423Z,30.00
2022-08-17T14:55:40.856Z,29.90
2022-08-17T14:58:10.669Z,29.90
2022-08-17T15:00:43.899Z,29.80
2022-08-17T15:03:14.650Z,29.80
2022-08-17T15:05:50.929Z,29.80
2022-08-17T15:26:54.047Z,29.60
2022-08-17T15:29:24.197Z,29.50
2022-08-17T15:31:58.653Z,29.60
2022-08-17T15:34:30.504Z,29.70
2022-08-17T15:37:00.253Z,29.70
2022-08-17T15:39:29.961Z,29.60
2022-08-17T15:42:05.001Z,29.70
2022-08-17T15:44:35.142Z,29.70
2022-08-17T15:47:24.334Z,29.80
2022-08-17T15:50:20.590Z,29.90
2022-08-17T15:52:58.227Z,30.00
2022-08-17T15:55:29.625Z,30.00
2022-08-17T15:58:03.506Z,29.90
2022-08-17T16:00:35.471Z,29.90
2022-08-17T16:03:58.236Z,30.00
2022-08-17T16:06:13.891Z,29.80
2022-08-17T16:08:45.536Z,29.60
2022-08-17T16:11:19.423Z,29.50
2022-08-17T16:13:55.012Z,29.20
2022-08-17T16:16:26.522Z,29.10
2022-08-17T16:18:59.127Z,28.90
2022-08-17T16:21:42.438Z,28.60
2022-08-17T16:24:14.980Z,28.50
2022-08-17T16:26:44.812Z,28.40
2022-08-17T16:29:18.704Z,28.40
2022-08-17T16:31:48.550Z,28.20
2022-08-17T16:34:27.100Z,28.00
2022-08-17T16:36:57.322Z,27.90
2022-08-17T16:39:29.463Z,27.80
2022-08-17T16:42:00.835Z,27.70
2022-08-17T16:44:32.505Z,27.70
2022-08-17T16:47:02.465Z,27.70
2022-08-17T16:49:36.620Z,27.70
2022-08-17T16:52:10.727Z,27.70
2022-08-17T16:54:44.232Z,27.90
2022-08-17T16:57:14.878Z,27.90
2022-08-17T16:59:50.554Z,28.00
2022-08-17T17:02:29.196Z,27.90
2022-08-17T17:05:04.873Z,27.80
2022-08-17T17:08:08.233Z,27.80
2022-08-17T17:10:43.793Z,27.90
2022-08-17T17:13:17.451Z,27.90
2022-08-17T17:15:56.034Z,28.00
2022-08-17T17:18:38.033Z,27.90
2022-08-17T17:21:11.393Z,27.80
2022-08-17T17:23:49.961Z,27.80
2022-08-17T17:26:36.673Z,27.70
2022-08-17T17:29:21.593Z,27.70
2022-08-17T17:32:09.874Z,27.60
2022-08-17T17:34:49.154Z,27.60
2022-08-17T17:37:30.872Z,27.60
2022-08-17T17:40:06.993Z,27.60
2022-08-17T17:42:41.237Z,27.60
2022-08-17T17:45:18.033Z,27.40
2022-08-17T17:47:49.854Z,27.40
2022-08-17T17:50:21.355Z,27.30
2022-08-17T17:53:02.465Z,27.30
2022-08-17T17:55:46.834Z,27.20
2022-08-17T17:58:29.074Z,27.20
2022-08-17T18:01:18.713Z,27.20
2022-08-17T18:04:20.665Z,27.10
2022-08-17T18:07:09.982Z,27.00
2022-08-17T18:10:05.785Z,27.00
2022-08-17T18:12:56.838Z,26.90
2022-08-17T18:15:31.786Z,26.90
2022-08-17T18:18:26.584Z,26.80
2022-08-17T18:21:06.825Z,26.80
2022-08-17T18:23:36.554Z,26.80
2022-08-17T18:26:06.586Z,26.70
2022-08-17T18:28:40.510Z,26.70
2022-08-17T18:31:18.113Z,26.70
2022-08-17T18:33:50.505Z,26.60
2022-08-17T18:36:30.825Z,26.50
2022-08-17T18:39:13.553Z,26.60
2022-08-17T18:41:44.675Z,26.60
2022-08-17T18:44:26.475Z,26.50
2022-08-17T19:11:59.236Z,25.80
2022-08-17T19:14:32.277Z,25.70
2022-08-17T19:17:09.518Z,25.60
2022-08-17T19:19:52.714Z,25.60
2022-08-17T19:22:31.314Z,25.60
2022-08-17T19:25:16.123Z,25.50
2022-08-17T19:27:57.197Z,25.50
2022-08-17T19:30:29.714Z,25.50
2022-08-17T19:33:00.953Z,25.40
2022-08-17T19:35:44.185Z,25.40
2022-08-17T19:38:26.603Z,25.30
2022-08-17T19:41:07.280Z,25.30
2022-08-17T19:44:08.510Z,25.20
2022-08-17T19:46:49.871Z,25.10
2022-08-17T19:49:33.423Z,25.20
2022-08-17T19:52:32.201Z,25.10
2022-08-17T19:55:07.923Z,25.10
2022-08-17T19:57:47.483Z,25.10
2022-08-17T20:00:18.959Z,25.00
2022-08-17T20:03:46.144Z,25.00
2022-08-17T20:06:17.880Z,25.00
2022-08-17T20:08:57.394Z,24.90
2022-08-17T20:11:41.559Z,24.90
2022-08-17T20:14:16.499Z,24.80
2022-08-17T20:16:48.998Z,24.70
2022-08-17T20:19:34.496Z,24.60
2022-08-17T20:22:12.692Z,24.70
2022-08-17T20:24:49.974Z,24.70
2022-08-17T20:27:31.273Z,24.60
2022-08-17T20:30:34.093Z,24.60
2022-08-17T20:33:08.627Z,24.50
2022-08-17T20:36:04.052Z,24.50
2022-08-17T20:38:47.995Z,24.50
2022-08-17T20:41:22.352Z,24.50
2022-08-17T20:44:06.814Z,24.60
2022-08-17T20:46:57.392Z,24.60
2022-08-17T20:49:32.363Z,24.50
2022-08-17T20:52:09.169Z,24.50
2022-08-17T20:54:51.519Z,24.50
2022-08-17T20:57:51.372Z,24.40
2022-08-17T21:00:44.075Z,24.30
2022-08-17T21:03:51.094Z,24.20
2022-08-17T21:06:26.595Z,24.20
2022-08-17T21:13:50.761Z,24.20
2022-08-17T21:16:46.439Z,24.30
2022-08-17T21:19:24.800Z,24.30
2022-08-17T21:22:06.686Z,24.40
2022-08-17T21:24:47.229Z,24.40
2022-08-17T21:27:32.170Z,24.30
2022-08-17T21:30:44.488Z,24.20
2022-08-17T21:33:25.269Z,24.20
2022-08-17T21:36:16.823Z,24.20
2022-08-17T21:38:58.063Z,24.20
2022-08-17T21:41:32.304Z,24.20
2022-08-17T21:44:07.708Z,24.30
2022-08-17T21:46:46.573Z,24.30
2022-08-17T21:49:22.397Z,24.20
2022-08-17T21:51:56.513Z,24.20
2022-08-17T21:54:34.390Z,24.10
2022-08-17T21:57:07.389Z,24.10
2022-08-17T21:59:40.220Z,24.10
2022-08-17T22:02:21.439Z,24.00
2022-08-17T22:05:02.084Z,24.00
2022-08-17T22:07:41.124Z,24.00
2022-08-17T22:10:30.870Z,23.90
2022-08-17T22:13:23.483Z,24.00
2022-08-17T22:16:29.067Z,23.90
2022-08-17T22:19:01.456Z,23.90
2022-08-17T22:21:31.044Z,23.80
2022-08-17T22:24:06.924Z,23.80
2022-08-17T22:27:03.614Z,23.80
2022-08-17T22:29:57.672Z,23.80
2022-08-17T22:32:36.690Z,23.80
2022-08-17T22:35:35.540Z,23.80
2022-08-17T22:38:31.475Z,23.90
2022-08-17T22:41:32.283Z,23.90
2022-08-17T22:44:26.163Z,23.90
2022-08-17T22:47:00.364Z,23.80
2022-08-17T22:49:33.763Z,23.60
2022-08-17T22:52:20.049Z,23.60
2022-08-17T22:55:09.347Z,23.40
2022-08-17T22:58:02.808Z,23.30
2022-08-17T23:00:40.476Z,23.20
2022-08-17T23:03:15.709Z,23.10
2022-08-17T23:05:48.116Z,23.00
2022-08-17T23:08:21.525Z,23.00
2022-08-17T23:10:51.740Z,23.00
2022-08-17T23:13:21.604Z,23.00
2022-08-17T23:15:52.748Z,23.00
2022-08-17T23:18:23.684Z,23.10
2022-08-17T23:20:52.944Z,23.00
2022-08-17T23:23:24.027Z,23.00
2022-08-17T23:25:54.678Z,23.00
2022-08-17T23:28:23.946Z,23.00
2022-08-17T23:30:53.278Z,23.00
2022-08-17T23:33:26.955Z,22.90
2022-08-17T23:35:56.233Z,23.00
2022-08-17T23:38:27.400Z,23.00
2022-08-17T23:40:57.406Z,22.90
2022-08-17T23:43:28.204Z,22.90
2022-08-17T23:45:59.919Z,22.90
2022-08-17T23:48:35.956Z,23.00
2022-08-17T23:51:11.012Z,23.00
2022-08-17T23:53:46.927Z,23.00
2022-08-17T23:56:18.859Z,23.00
2022-08-17T23:58:48.002Z,22.90
